createdAt,value
2017-10-13T00:01:40.002Z,18.00
2017-10-13T00:04:08.344Z,18.10
2017-10-13T00:06:35.866Z,18.10
2017-10-13T00:09:03.433Z,18.00
2017-10-13T00:11:30.946Z,17.90
2017-10-13T00:13:58.480Z,17.90
2017-10-13T00:16:26.010Z,17.90
2017-10-13T00:18:53.585Z,17.70
2017-10-13T00:21:21.135Z,17.80
2017-10-13T00:23:48.702Z,17.80
2017-10-13T00:26:16.246Z,17.70
2017-10-13T00:28:43.761Z,17.70
2017-10-13T00:31:11.286Z,17.70
2017-10-13T00:33:38.871Z,17.70
2017-10-13T00:36:06.360Z,17.90
2017-10-13T00:38:34.680Z,17.70
2017-10-13T00:41:02.191Z,17.60
2017-10-13T00:43:29.709Z,17.80
2017-10-13T00:45:57.249Z,17.60
2017-10-13T00:48:24.797Z,17.20
2017-10-13T00:50:52.382Z,17.20
2017-10-13T00:53:19.918Z,17.50
2017-10-13T00:55:47.466Z,17.50
2017-10-13T00:58:15.872Z,17.40
2017-10-13T01:00:43.808Z,17.30
2017-10-13T01:03:12.199Z,17.60
2017-10-13T01:05:40.244Z,17.60
2017-10-13T01:08:07.813Z,17.70
2017-10-13T01:10:35.371Z,17.40
2017-10-13T01:13:03.689Z,17.60
2017-10-13T01:15:31.229Z,17.60
2017-10-13T01:17:58.860Z,17.70
2017-10-13T01:20:26.391Z,17.60
2017-10-13T01:22:54.691Z,17.50
2017-10-13T01:25:22.221Z,17.40
2017-10-13T01:27:49.776Z,17.40
2017-10-13T01:30:17.289Z,17.40
2017-10-13T01:32:45.617Z,17.40
2017-10-13T01:35:13.154Z,17.40
2017-10-13T01:37:40.706Z,17.20
2017-10-13T01:40:08.207Z,17.20
2017-10-13T01:42:35.757Z,17.40
2017-10-13T01:45:03.269Z,17.30
2017-10-13T01:47:31.598Z,17.30
2017-10-13T01:49:59.151Z,17.30
2017-10-13T01:52:26.660Z,17.40
2017-10-13T01:54:54.953Z,17.40
2017-10-13T01:57:23.535Z,17.50
2017-10-13T01:59:51.848Z,17.10
2017-10-13T02:02:19.356Z,17.10
2017-10-13T02:04:47.686Z,17.20
2017-10-13T02:07:15.189Z,17.20
2017-10-13T02:09:43.937Z,17.30
2017-10-13T02:12:11.753Z,17.30
2017-10-13T02:14:40.065Z,17.30
2017-10-13T02:17:07.624Z,17.20
2017-10-13T02:19:35.184Z,17.30
2017-10-13T02:22:02.758Z,17.30
2017-10-13T02:24:30.341Z,17.10
2017-10-13T02:26:57.886Z,17.10
2017-10-13T02:29:25.452Z,17.10
2017-10-13T02:31:53.013Z,17.30
2017-10-13T02:34:20.569Z,17.50
2017-10-13T02:36:48.116Z,17.30
2017-10-13T02:39:15.653Z,17.30
2017-10-13T02:41:43.161Z,17.20
2017-10-13T02:44:11.233Z,17.00
2017-10-13T02:46:39.587Z,17.10
2017-10-13T02:49:07.112Z,16.90
2017-10-13T02:51:35.445Z,17.10
2017-10-13T02:54:03.958Z,17.10
2017-10-13T02:56:31.486Z,17.30
2017-10-13T02:58:59.038Z,17.20
2017-10-13T03:01:26.578Z,17.10
2017-10-13T03:03:54.237Z,17.20
2017-10-13T03:06:21.761Z,17.30
2017-10-13T03:08:50.085Z,17.30
2017-10-13T03:11:17.584Z,17.30
2017-10-13T03:13:45.098Z,17.20
2017-10-13T03:16:12.815Z,17.20
2017-10-13T03:18:41.106Z,17.00
2017-10-13T03:21:09.420Z,16.90
2017-10-13T03:23:36.969Z,16.90
2017-10-13T03:26:04.486Z,17.10
2017-10-13T03:28:32.040Z,17.10
2017-10-13T03:30:59.545Z,17.20
2017-10-13T03:33:27.099Z,17.00
2017-10-13T03:35:54.621Z,17.00
2017-10-13T03:38:22.943Z,16.90
2017-10-13T03:40:50.469Z,16.90
2017-10-13T03:43:18.782Z,17.20
2017-10-13T03:45:46.296Z,17.20
2017-10-13T03:48:14.586Z,17.20
2017-10-13T03:50:43.792Z,17.10
2017-10-13T03:53:11.299Z,17.00
2017-10-13T03:55:38.820Z,17.00
2017-10-13T03:58:06.317Z,17.20
2017-10-13T04:00:33.898Z,17.40
2017-10-13T04:03:01.443Z,17.40
2017-10-13T04:05:28.977Z,17.50
2017-10-13T04:07:56.500Z,17.60
2017-10-13T04:10:24.792Z,17.40
2017-10-13T04:12:52.306Z,17.30
2017-10-13T04:15:19.856Z,17.50
2017-10-13T04:17:47.375Z,17.60
2017-10-13T04:20:14.899Z,17.50
2017-10-13T04:22:43.326Z,17.50
2017-10-13T04:25:10.869Z,17.80
2017-10-13T04:27:39.153Z,17.90
2017-10-13T04:30:06.702Z,17.90
2017-10-13T04:32:34.979Z,17.60
2017-10-13T04:35:02.518Z,17.60
2017-10-13T04:37:30.826Z,18.10
2017-10-13T04:39:58.364Z,18.10
2017-10-13T04:42:26.674Z,18.00
2017-10-13T04:44:54.227Z,18.10
2017-10-13T04:47:21.782Z,18.20
2017-10-13T04:49:49.358Z,18.10
2017-10-13T04:52:16.874Z,18.10
2017-10-13T04:54:45.161Z,18.10
2017-10-13T04:57:13.440Z,18.10
2017-10-13T04:59:41.742Z,18.00
2017-10-13T05:02:09.254Z,18.00
2017-10-13T05:04:37.589Z,17.90
2017-10-13T05:07:05.110Z,17.90
2017-10-13T05:09:33.396Z,18.30
2017-10-13T05:12:01.669Z,18.30
2017-10-13T05:14:29.997Z,18.10
2017-10-13T05:16:57.504Z,18.10
2017-10-13T05:19:25.818Z,18.00
2017-10-13T05:21:53.358Z,18.00
2017-10-13T05:24:21.664Z,18.00
2017-10-13T05:26:49.545Z,18.00
2017-10-13T05:29:17.153Z,18.00
2017-10-13T05:31:45.441Z,18.10
2017-10-13T05:34:13.009Z,18.10
2017-10-13T05:36:40.533Z,18.10
2017-10-13T05:39:08.161Z,17.90
2017-10-13T05:41:35.677Z,17.90
2017-10-13T05:44:03.277Z,18.10
2017-10-13T05:46:30.800Z,18.10
2017-10-13T05:48:58.303Z,18.10
2017-10-13T05:51:25.839Z,18.30
2017-10-13T05:53:53.359Z,18.30
2017-10-13T05:56:21.634Z,18.40
2017-10-13T05:58:49.918Z,18.40
2017-10-13T06:01:18.263Z,18.40
2017-10-13T06:03:47.495Z,18.30
2017-10-13T06:06:15.798Z,18.40
2017-10-13T06:08:43.373Z,18.40
2017-10-13T06:11:10.897Z,18.50
2017-10-13T06:13:38.424Z,18.50
2017-10-13T06:16:05.946Z,18.50
2017-10-13T06:18:33.434Z,18.60
2017-10-13T06:21:01.069Z,18.50
2017-10-13T06:23:28.570Z,18.50
2017-10-13T06:25:56.259Z,18.50
2017-10-13T06:28:23.855Z,18.20
2017-10-13T06:30:51.512Z,18.00
2017-10-13T06:33:19.217Z,18.20
2017-10-13T06:35:46.748Z,18.40
2017-10-13T06:38:14.287Z,18.00
2017-10-13T06:40:41.817Z,18.00
2017-10-13T06:43:10.097Z,18.30
2017-10-13T06:45:38.400Z,18.30
2017-10-13T06:48:05.909Z,18.30
2017-10-13T06:50:34.249Z,18.50
2017-10-13T06:53:01.769Z,18.50
2017-10-13T06:55:29.302Z,18.60
2017-10-13T06:57:57.589Z,18.80
2017-10-13T07:00:25.942Z,19.00
2017-10-13T07:02:53.454Z,19.00
2017-10-13T07:05:21.760Z,18.70
2017-10-13T07:07:49.255Z,18.60
2017-10-13T07:10:16.769Z,18.90
2017-10-13T07:12:44.305Z,19.00
2017-10-13T07:15:11.840Z,18.80
2017-10-13T07:17:39.377Z,18.90
2017-10-13T07:20:07.663Z,19.00
2017-10-13T07:22:35.180Z,18.90
2017-10-13T07:25:02.722Z,19.00
2017-10-13T07:27:30.284Z,18.90
2017-10-13T07:29:57.844Z,18.80
2017-10-13T07:32:25.383Z,18.90
2017-10-13T07:34:53.671Z,19.50
2017-10-13T07:37:21.248Z,19.50
2017-10-13T07:39:48.761Z,19.80
2017-10-13T07:42:16.312Z,19.70
2017-10-13T07:44:43.835Z,19.70
2017-10-13T07:47:11.807Z,19.90
2017-10-13T07:49:39.474Z,19.90
2017-10-13T07:52:07.114Z,20.00
2017-10-13T07:54:34.604Z,20.00
2017-10-13T07:57:02.147Z,20.10
2017-10-13T07:59:29.664Z,19.80
2017-10-13T08:02:02.398Z,19.80
2017-10-13T08:04:40.350Z,19.80
2017-10-13T08:07:08.634Z,19.30
2017-10-13T08:09:36.910Z,19.80
2017-10-13T08:12:05.243Z,20.00
2017-10-13T08:14:32.784Z,20.00
2017-10-13T08:17:00.312Z,20.20
2017-10-13T08:19:28.597Z,20.40
2017-10-13T08:21:56.924Z,20.90
2017-10-13T08:24:24.425Z,20.90
2017-10-13T08:26:52.732Z,21.20
2017-10-13T08:29:20.268Z,21.20
2017-10-13T08:31:48.573Z,21.50
2017-10-13T08:34:16.074Z,21.50
2017-10-13T08:36:43.588Z,22.10
2017-10-13T08:39:11.199Z,21.90
2017-10-13T08:41:38.718Z,22.00
2017-10-13T08:44:06.229Z,22.00
2017-10-13T08:46:34.558Z,22.00
2017-10-13T08:49:02.062Z,22.00
2017-10-13T08:51:30.398Z,21.30
2017-10-13T08:53:57.916Z,21.30
2017-10-13T08:56:25.456Z,20.90
2017-10-13T08:58:53.035Z,20.60
2017-10-13T09:01:21.355Z,21.20
2017-10-13T09:03:48.865Z,21.20
2017-10-13T09:06:17.170Z,21.10
2017-10-13T09:08:48.803Z,21.10
2017-10-13T09:11:17.163Z,22.10
2017-10-13T09:13:45.378Z,22.10
2017-10-13T09:16:13.209Z,22.20
2017-10-13T09:18:41.714Z,22.10
2017-10-13T09:21:30.722Z,21.70
2017-10-13T09:23:58.266Z,22.40
2017-10-13T09:26:25.792Z,22.50
2017-10-13T09:28:54.294Z,22.40
2017-10-13T09:31:21.993Z,22.40
2017-10-13T09:33:49.536Z,21.90
2017-10-13T09:36:19.018Z,21.90
2017-10-13T09:38:46.582Z,22.10
2017-10-13T09:41:14.132Z,21.80
2017-10-13T09:43:41.660Z,21.80
2017-10-13T09:46:09.209Z,21.90
2017-10-13T09:48:36.728Z,21.90
2017-10-13T09:51:04.230Z,21.80
2017-10-13T09:53:31.745Z,21.40
2017-10-13T09:55:59.595Z,22.00
2017-10-13T09:58:27.145Z,22.10
2017-10-13T10:00:54.688Z,21.80
2017-10-13T10:03:23.037Z,21.20
2017-10-13T10:05:50.573Z,21.20
2017-10-13T10:08:18.860Z,21.50
2017-10-13T10:10:46.368Z,21.50
2017-10-13T10:13:14.678Z,21.40
2017-10-13T10:15:42.248Z,21.40
2017-10-13T10:18:09.800Z,21.00
2017-10-13T10:20:38.813Z,21.10
2017-10-13T10:23:06.358Z,21.10
2017-10-13T10:25:33.912Z,21.00
2017-10-13T10:28:01.455Z,21.30
2017-10-13T10:30:29.721Z,21.70
2017-10-13T10:32:58.055Z,22.30
2017-10-13T10:35:25.568Z,22.30
2017-10-13T10:37:53.849Z,24.00
2017-10-13T10:40:22.157Z,24.70
2017-10-13T10:42:49.727Z,24.70
2017-10-13T10:45:17.252Z,24.90
2017-10-13T10:47:45.088Z,23.80
2017-10-13T10:50:13.411Z,23.50
2017-10-13T10:52:43.381Z,23.50
2017-10-13T10:55:10.885Z,22.90
2017-10-13T10:57:38.414Z,22.40
2017-10-13T11:00:06.722Z,21.60
2017-10-13T11:02:34.246Z,21.60
2017-10-13T11:05:02.521Z,23.00
2017-10-13T11:07:30.070Z,23.00
2017-10-13T11:09:57.585Z,24.70
2017-10-13T11:12:25.118Z,25.90
2017-10-13T11:14:52.659Z,25.90
2017-10-13T11:17:20.993Z,28.70
2017-10-13T11:19:48.549Z,28.50
2017-10-13T11:22:16.106Z,28.60
2017-10-13T11:24:44.429Z,26.90
2017-10-13T11:27:11.957Z,26.90
2017-10-13T11:29:39.456Z,26.80
2017-10-13T11:32:07.750Z,25.50
2017-10-13T11:34:36.005Z,26.20
2017-10-13T11:37:04.283Z,27.10
2017-10-13T11:39:32.578Z,26.50
2017-10-13T11:42:00.874Z,26.70
2017-10-13T11:44:28.376Z,26.70
2017-10-13T11:46:55.883Z,27.10
2017-10-13T11:49:23.414Z,26.80
2017-10-13T11:51:51.693Z,26.40
2017-10-13T11:54:20.002Z,25.80
2017-10-13T11:56:47.496Z,25.80
2017-10-13T11:59:15.022Z,25.00
2017-10-13T12:01:42.553Z,24.40
2017-10-13T12:04:10.901Z,25.00
2017-10-13T12:06:39.930Z,24.90
2017-10-13T12:09:08.236Z,24.70
2017-10-13T12:11:35.744Z,24.70
2017-10-13T12:14:03.363Z,24.90
2017-10-13T12:16:30.866Z,24.80
2017-10-13T12:18:59.203Z,24.30
2017-10-13T12:21:26.720Z,24.20
2017-10-13T12:23:55.010Z,24.10
2017-10-13T12:26:22.544Z,24.10
2017-10-13T12:28:50.063Z,24.50
2017-10-13T12:31:17.593Z,25.00
2017-10-13T12:33:45.120Z,25.30
2017-10-13T12:36:13.413Z,25.40
2017-10-13T12:38:41.718Z,25.00
2017-10-13T12:41:09.267Z,25.00
2017-10-13T12:43:36.808Z,24.80
2017-10-13T12:46:05.093Z,26.30
2017-10-13T12:48:32.638Z,26.30
2017-10-13T12:51:00.913Z,27.60
2017-10-13T12:53:29.197Z,27.90
2017-10-13T12:55:57.481Z,28.10
2017-10-13T12:58:25.757Z,27.90
2017-10-13T13:00:53.277Z,27.80
2017-10-13T13:03:20.798Z,27.70
2017-10-13T13:05:48.394Z,27.50
2017-10-13T13:08:15.938Z,27.40
2017-10-13T13:13:17.779Z,26.50
2017-10-13T13:15:46.069Z,26.10
2017-10-13T13:18:13.577Z,26.00
2017-10-13T13:20:41.090Z,25.50
2017-10-13T13:23:08.638Z,26.20
2017-10-13T13:25:36.163Z,26.10
2017-10-13T13:28:03.691Z,26.80
2017-10-13T13:30:31.228Z,26.80
2017-10-13T13:32:58.737Z,27.40
2017-10-13T13:35:26.276Z,27.90
2017-10-13T13:37:53.833Z,28.80
2017-10-13T13:40:21.394Z,28.60
2017-10-13T13:42:48.905Z,28.70
2017-10-13T13:45:17.211Z,26.50
2017-10-13T13:47:44.712Z,26.50
2017-10-13T13:50:12.261Z,26.50
2017-10-13T13:52:39.791Z,26.00
2017-10-13T13:55:07.325Z,26.20
2017-10-13T13:57:35.656Z,26.60
2017-10-13T14:00:03.211Z,26.50
2017-10-13T14:02:30.739Z,26.40
2017-10-13T14:04:58.276Z,25.80
2017-10-13T14:07:26.555Z,25.80
2017-10-13T14:09:54.841Z,25.50
2017-10-13T14:12:22.363Z,25.50
2017-10-13T14:14:49.952Z,25.10
2017-10-13T14:17:18.262Z,24.70
2017-10-13T14:19:45.829Z,24.70
2017-10-13T14:22:13.357Z,24.50
2017-10-13T14:24:40.887Z,24.60
2017-10-13T14:27:08.393Z,24.60
2017-10-13T14:29:35.918Z,24.80
2017-10-13T14:32:04.190Z,24.70
2017-10-13T14:34:32.507Z,25.00
2017-10-13T14:37:00.032Z,25.00
2017-10-13T14:39:27.609Z,25.20
2017-10-13T14:41:55.157Z,25.30
2017-10-13T14:44:23.446Z,25.60
2017-10-13T14:46:50.965Z,25.50
2017-10-13T14:49:18.530Z,25.10
2017-10-13T14:51:46.059Z,25.00
2017-10-13T14:54:13.666Z,24.80
2017-10-13T14:56:41.957Z,24.50
2017-10-13T14:59:10.239Z,24.70
2017-10-13T15:01:38.519Z,24.80
2017-10-13T15:04:06.068Z,24.70
2017-10-13T15:06:34.337Z,25.10
2017-10-13T15:09:03.584Z,25.20
2017-10-13T15:11:31.094Z,25.20
2017-10-13T15:13:59.371Z,25.30
2017-10-13T15:16:27.655Z,24.00
2017-10-13T15:18:55.965Z,24.20
2017-10-13T15:21:23.494Z,24.10
2017-10-13T15:23:51.780Z,24.70
2017-10-13T15:26:25.741Z,25.30
2017-10-13T15:28:58.799Z,25.30
2017-10-13T15:34:30.963Z,25.30
2017-10-13T15:36:59.231Z,25.00
2017-10-13T15:39:33.088Z,25.00
2017-10-13T15:42:18.316Z,25.00
2017-10-13T15:44:49.537Z,25.00
2017-10-13T15:47:22.765Z,25.00
2017-10-13T15:49:55.821Z,24.80
2017-10-13T15:52:27.213Z,24.30
2017-10-13T15:54:54.769Z,24.20
2017-10-13T15:57:22.286Z,24.00
2017-10-13T15:59:49.856Z,23.90
2017-10-13T16:02:17.352Z,24.00
2017-10-13T16:04:45.386Z,24.00
2017-10-13T16:07:12.917Z,23.70
2017-10-13T16:09:40.457Z,23.60
2017-10-13T16:12:08.041Z,23.20
2017-10-13T16:14:35.562Z,23.20
2017-10-13T16:17:03.089Z,23.20
2017-10-13T16:19:30.593Z,23.30
2017-10-13T16:21:58.149Z,23.50
2017-10-13T16:24:25.654Z,23.20
2017-10-13T16:26:53.204Z,23.50
2017-10-13T16:29:20.760Z,23.70
2017-10-13T16:31:48.383Z,23.60
2017-10-13T16:34:15.894Z,23.60
2017-10-13T16:36:44.813Z,23.40
2017-10-13T16:39:13.091Z,23.30
2017-10-13T16:41:41.388Z,23.00
2017-10-13T16:44:08.900Z,23.00
2017-10-13T16:46:36.437Z,23.00
2017-10-13T16:49:03.961Z,22.80
2017-10-13T16:51:31.509Z,22.70
2017-10-13T16:53:59.802Z,22.80
2017-10-13T16:56:27.324Z,22.80
2017-10-13T16:58:54.813Z,22.80
2017-10-13T17:01:23.110Z,22.70
2017-10-13T17:03:50.625Z,22.70
2017-10-13T17:06:18.938Z,22.60
2017-10-13T17:08:47.216Z,22.60
2017-10-13T17:11:14.848Z,22.60
2017-10-13T17:13:44.053Z,22.60
2017-10-13T17:16:12.349Z,22.60
2017-10-13T17:18:39.854Z,22.60
2017-10-13T17:21:07.440Z,22.50
2017-10-13T17:23:35.726Z,22.30
2017-10-13T17:26:03.264Z,22.30
2017-10-13T17:28:31.565Z,22.10
2017-10-13T17:30:59.896Z,22.10
2017-10-13T17:33:27.405Z,22.10
2017-10-13T17:35:54.955Z,22.00
2017-10-13T17:38:23.302Z,22.00
2017-10-13T17:40:50.839Z,22.00
2017-10-13T17:43:18.368Z,21.90
2017-10-13T17:45:46.694Z,21.90
2017-10-13T17:48:14.210Z,21.80
2017-10-13T17:50:42.488Z,22.00
2017-10-13T17:53:10.786Z,21.90
2017-10-13T17:55:39.148Z,21.90
2017-10-13T17:58:07.425Z,22.10
2017-10-13T18:00:34.934Z,22.10
2017-10-13T18:03:02.466Z,21.80
2017-10-13T18:05:29.997Z,21.80
2017-10-13T18:07:57.543Z,21.90
2017-10-13T18:10:25.056Z,21.80
2017-10-13T18:12:52.578Z,21.90
2017-10-13T18:15:20.099Z,21.90
2017-10-13T18:17:47.619Z,21.80
2017-10-13T18:20:15.139Z,22.00
2017-10-13T18:22:44.406Z,21.70
2017-10-13T18:25:11.901Z,21.70
2017-10-13T18:27:40.189Z,21.80
2017-10-13T18:30:07.769Z,21.80
2017-10-13T18:32:35.304Z,21.80
2017-10-13T18:35:04.214Z,21.80
2017-10-13T18:37:31.781Z,21.80
2017-10-13T18:39:59.437Z,21.80
2017-10-13T18:42:27.286Z,21.50
2017-10-13T18:44:54.823Z,21.60
2017-10-13T18:47:22.337Z,21.70
2017-10-13T18:49:49.846Z,21.70
2017-10-13T18:52:18.153Z,21.80
2017-10-13T18:54:45.684Z,21.70
2017-10-13T18:57:14.001Z,21.90
2017-10-13T18:59:41.513Z,21.90
2017-10-13T19:02:09.045Z,21.80
2017-10-13T19:04:36.548Z,21.80
2017-10-13T19:07:04.876Z,22.10
2017-10-13T19:09:33.373Z,22.10
2017-10-13T19:12:00.921Z,22.20
2017-10-13T19:14:28.433Z,22.30
2017-10-13T19:16:55.957Z,22.40
2017-10-13T19:19:23.457Z,22.40
2017-10-13T19:21:51.761Z,22.40
2017-10-13T19:24:19.277Z,22.30
2017-10-13T19:26:47.570Z,22.50
2017-10-13T19:29:15.835Z,22.50
2017-10-13T19:31:45.060Z,22.20
2017-10-13T19:34:12.609Z,22.20
2017-10-13T19:36:40.164Z,22.10
2017-10-13T19:39:08.474Z,22.40
2017-10-13T19:41:35.983Z,22.30
2017-10-13T19:44:04.328Z,22.70
2017-10-13T19:46:32.368Z,22.70
2017-10-13T19:49:00.240Z,22.60
2017-10-13T19:51:28.507Z,22.50
2017-10-13T19:53:56.392Z,22.60
2017-10-13T19:56:25.103Z,22.60
2017-10-13T19:58:52.862Z,22.50
2017-10-13T20:01:21.414Z,22.30
2017-10-13T20:03:49.258Z,22.30
2017-10-13T20:06:17.190Z,22.30
2017-10-13T20:08:45.239Z,22.30
2017-10-13T20:11:12.960Z,22.20
2017-10-13T20:13:42.532Z,22.30
2017-10-13T20:16:11.445Z,22.20
2017-10-13T20:18:40.441Z,22.10
2017-10-13T20:21:10.032Z,22.00
2017-10-13T20:23:39.441Z,22.20
2017-10-13T20:26:08.087Z,22.40
2017-10-13T20:28:35.862Z,22.30
2017-10-13T20:31:04.174Z,22.50
2017-10-13T20:33:31.967Z,22.60
2017-10-13T20:36:00.891Z,22.60
2017-10-13T20:38:29.680Z,22.20
2017-10-13T20:40:57.593Z,22.20
2017-10-13T20:43:26.178Z,22.40
2017-10-13T20:45:54.277Z,22.40
2017-10-13T20:48:22.782Z,22.20
2017-10-13T20:50:50.767Z,22.20
2017-10-13T20:53:19.398Z,22.50
2017-10-13T20:55:47.133Z,22.40
2017-10-13T20:58:15.039Z,22.10
2017-10-13T21:00:42.909Z,21.90
2017-10-13T21:03:13.471Z,21.90
2017-10-13T21:05:42.186Z,21.80
2017-10-13T21:08:09.980Z,21.80
2017-10-13T21:10:37.724Z,21.50
2017-10-13T21:13:07.162Z,21.60
2017-10-13T21:15:35.034Z,21.70
2017-10-13T21:18:03.826Z,21.70
2017-10-13T21:20:31.564Z,21.80
2017-10-13T21:23:00.303Z,21.70
2017-10-13T21:25:28.965Z,21.70
2017-10-13T21:27:57.672Z,21.70
2017-10-13T21:30:25.431Z,21.60
2017-10-13T21:32:53.727Z,21.60
2017-10-13T21:35:22.044Z,21.50
2017-10-13T21:37:51.396Z,21.50
2017-10-13T21:40:19.773Z,21.50
2017-10-13T21:42:47.576Z,21.50
2017-10-13T21:45:16.197Z,21.50
2017-10-13T21:47:45.024Z,21.50
2017-10-13T21:50:12.926Z,21.50
2017-10-13T21:52:40.694Z,21.40
2017-10-13T21:55:09.331Z,21.20
2017-10-13T21:57:38.642Z,21.20
2017-10-13T22:00:07.628Z,21.10
2017-10-13T22:02:36.084Z,21.00
2017-10-13T22:05:08.071Z,21.00
2017-10-13T22:07:35.828Z,20.90
2017-10-13T22:10:03.758Z,21.00
2017-10-13T22:12:32.275Z,21.00
2017-10-13T22:15:00.337Z,21.00
2017-10-13T22:17:28.883Z,20.90
2017-10-13T22:19:58.576Z,21.10
2017-10-13T22:22:28.114Z,21.10
2017-10-13T22:24:55.980Z,21.10
2017-10-13T22:27:23.843Z,21.10
2017-10-13T22:29:52.485Z,21.00
2017-10-13T22:32:21.426Z,21.30
2017-10-13T22:34:49.323Z,21.30
2017-10-13T22:37:17.611Z,21.40
2017-10-13T22:39:46.807Z,21.30
2017-10-13T22:42:14.548Z,21.00
2017-10-13T22:44:42.482Z,20.90
2017-10-13T22:47:12.780Z,21.40
2017-10-13T22:49:41.594Z,21.40
2017-10-13T22:52:12.730Z,21.30
2017-10-13T22:54:42.517Z,21.30
2017-10-13T22:57:11.062Z,21.50
2017-10-13T22:59:39.193Z,21.40
2017-10-13T23:02:06.915Z,21.60
2017-10-13T23:04:35.082Z,21.50
2017-10-13T23:07:02.954Z,21.20
2017-10-13T23:09:32.862Z,21.40
2017-10-13T23:12:01.504Z,21.30
2017-10-13T23:14:30.685Z,21.40
2017-10-13T23:16:58.564Z,21.60
2017-10-13T23:19:26.937Z,21.70
2017-10-13T23:21:54.457Z,21.70
2017-10-13T23:24:21.985Z,21.60
2017-10-13T23:26:49.485Z,21.70
2017-10-13T23:29:17.018Z,21.80
2017-10-13T23:31:45.029Z,21.60
2017-10-13T23:34:12.577Z,21.70
2017-10-13T23:36:40.080Z,21.40
2017-10-13T23:39:07.610Z,21.30
2017-10-13T23:41:35.896Z,21.40
2017-10-13T23:44:03.446Z,21.30
2017-10-13T23:46:30.977Z,21.20
2017-10-13T23:48:59.259Z,21.10
2017-10-13T23:51:26.818Z,21.10
2017-10-13T23:53:55.072Z,21.10
2017-10-13T23:56:22.617Z,21.10
2017-10-13T23:58:50.121Z,20.80
